Terminal Aerodrome Forecast
Issued by NWS

Home | Current Version | Previous Version | Text Only | Print | Product List | Glossary Off
Versions: 1 2 3 4 5 6 7 8 9 10 11 12 13 14 15 16 17 18 19 20 21 22 23 24 25

000
FTUS43 KBIS 210200 AAB
TAFMOT
TAF AMD
KMOT 210243Z 2103/2124 21008KT 5SM -FZRA BR OVC023
     FM210400 24005KT 6SM BR FEW010
     FM211000 17004KT 2SM BR OVC010
     FM211800 14008KT P6SM SCT010 BKN100=

USA.gov is the U.S. government's official web portal to all federal, state and local government web resources and services.